Apalachicola, FL (32329)

3:31 AM EDT on August 20, 2014 (GMT -0400)
Apalachicola Municipal | Change Station
CLOSE
Current Station
Airport
Location: Apalachicola,
Elevation: 20 ft
Nearby Weather Stations

Elev 20 ft 29.73 °N, 85.03 °W | Updated 38 minutes ago

Partly Cloudy
Partly Cloudy
82 °F
Feels Like 89 °F
N
5
Wind Variable Wind from SSW

Today
High -- | Low -- °F
--% Chance of Precip.
Yesterday
High -- | Low -- °F
Precip. -- in
7:10 AM 8:15 PM
Waning Crescent, 23% visible
Pressure 29.97 in
Visibility 10.0 miles
Clouds Few 2200 ft
Heat Index 89 °F
Dew Point 76 °F
Humidity 82%
Rainfall 0.00 in
Snow Depth Not available.
UV 0 out of 12
Pollen 6.60 out of 12
Air Quality Not available.
Flu Activity Not available.
METAR KAAF 200653Z AUTO 21004KT 10SM FEW022 28/24 A2997 RMK AO2 SLP147 T02780244

More Conditions Fewer Conditions

Pressure 29.97 in
Visibility 10.0 miles
Clouds Few 2200 ft
Heat Index 89 °F
Dew Point 76 °F
Humidity 82%
Rainfall 0.00 in
Snow Depth Not available.
UV 0 out of 12
Pollen 6.60 out of 12
Air Quality Not available.
Flu Activity Not available.
METAR KAAF 200653Z AUTO 21004KT 10SM FEW022 28/24 A2997 RMK AO2 SLP147 T02780244

More Conditions Fewer Conditions

10-Day Weather Forecast

Almanac

Astronomy

Aug. 20, 2014 Rise Set
Actual Time 7:10 AM EDT 8:15 PM EDT
Civil Twilight 6:45 AM EDT 8:40 PM EDT
Nautical Twilight 6:16 AM EDT 9:09 PM EDT
Astronomical Twilight 5:46 AM EDT 9:39 PM EDT
Moon 2:57 AM EDT 4:52 PM EDT
Length of Visible Light 13h 54m
Length of Day
13h 04m
Tomorrow will be 1m 37s shorter.
Waning Crescent, 23% of the Moon is Illuminated
Today
Waning Crescent
Aug 25
New
Sep 2
First Quarter
Sep 8
Full
Sep 15
Last Quarter

Today's Extremes

State Highs State Lows

Community

WunderPhotos

Upload Photos

1,745,592 photos uploaded!

Nearby

Snow Depth

Station Depth Elevation
No new snow has been reported.

Earthquake Activity

City Distance Mag. Time & Date
No recent earthquake activity has been reported nearby.
Minimum magnitude displayed is 2.5.

Coastal Water Temperatures

Place Temperature
Panama City, FL 86.0 °F
Panama City Beach, FL 82.0 °F
Apalachicola, FL 87.1 °F

Nearby Weather Stations